Time;durP1;ratioP1;P1;durP2;ratioP2;P2;SDS_P1;SDS_P2;PMS_P1;PMS_P2;Temp;Humidity;BMP_temperature;BMP_pressure;BME280_temperature;BME280_humidity;BME280_pressure;Samples;Min_cycle;Max_cycle;Signal;HPM_P1;HPM_P2
2021/05/12 00:02:03;;;;;;;14.55;3.00;;;11.40;99.90;;;;;;5013312;28;20069;-59
2021/05/12 00:04:29;;;;;;;16.70;2.78;;;11.30;99.90;;;;;;5012987;28;20030;-62
2021/05/12 00:06:54;;;;;;;15.10;2.72;;;11.20;99.90;;;;;;5013323;28;20114;-59
2021/05/12 00:09:20;;;;;;;12.35;2.42;;;11.20;99.90;;;;;;5013598;28;20076;-60
2021/05/12 00:11:45;;;;;;;16.95;2.90;;;11.20;99.90;;;;;;4996091;28;20176;-59
2021/05/12 00:14:11;;;;;;;15.40;2.58;;;11.30;99.90;;;;;;5013717;28;20042;-60
2021/05/12 00:16:37;;;;;;;17.20;2.45;;;11.20;99.90;;;;;;5013436;28;20041;-58
2021/05/12 00:19:03;;;;;;;12.77;2.33;;;11.20;99.90;;;;;;5013442;28;20040;-62
2021/05/12 00:21:38;;;;;;;14.07;2.58;;;11.20;99.90;;;;;;5013154;28;20050;-59
2021/05/12 00:24:04;;;;;;;13.13;2.53;;;11.20;99.90;;;;;;5013507;28;20046;-60
2021/05/12 00:26:38;;;;;;;12.05;2.25;;;11.20;99.90;;;;;;5011441;28;20387;-59
2021/05/12 00:29:15;;;;;;;16.55;2.95;;;11.20;99.90;;;;;;5014850;28;20045;-60
2021/05/12 00:31:41;;;;;;;15.52;2.60;;;11.00;99.90;;;;;;5012776;28;20065;-59
2021/05/12 00:34:07;;;;;;;13.55;2.30;;;11.00;99.90;;;;;;4987978;28;20443;-58
2021/05/12 00:36:34;;;;;;;6.90;1.88;;;11.00;99.90;;;;;;5012276;28;20108;-60
2021/05/12 00:39:02;;;;;;;10.60;2.05;;;10.80;99.90;;;;;;5013411;28;20041;-59
2021/05/12 00:41:28;;;;;;;10.50;1.77;;;10.80;99.90;;;;;;5012340;28;20029;-62
2021/05/12 00:43:53;;;;;;;7.53;1.77;;;10.80;99.90;;;;;;5013223;28;20117;-59
2021/05/12 00:46:19;;;;;;;17.55;2.53;;;10.80;99.90;;;;;;5012665;28;20395;-59
2021/05/12 00:48:45;;;;;;;8.55;1.80;;;10.80;99.90;;;;;;5013346;28;20046;-60
2021/05/12 00:51:11;;;;;;;10.35;2.08;;;10.70;99.90;;;;;;5013310;28;20144;-60
2021/05/12 00:53:37;;;;;;;13.73;2.47;;;10.70;99.90;;;;;;5012974;28;20064;-62
2021/05/12 00:56:04;;;;;;;11.57;1.92;;;10.70;99.90;;;;;;5012358;28;20072;-57
2021/05/12 00:58:30;;;;;;;9.75;1.88;;;10.70;99.90;;;;;;5012680;28;20040;-59
2021/05/12 01:00:56;;;;;;;11.18;2.20;;;10.70;99.90;;;;;;5012733;28;20074;-60
2021/05/12 01:03:22;;;;;;;8.00;1.63;;;10.70;99.90;;;;;;5013260;28;20124;-60
2021/05/12 01:05:51;;;;;;;7.90;1.98;;;10.80;99.90;;;;;;5012993;28;20118;-60
2021/05/12 01:08:18;;;;;;;9.57;1.70;;;10.80;99.90;;;;;;5012526;28;20037;-60
2021/05/12 01:10:45;;;;;;;10.77;1.90;;;10.90;99.90;;;;;;5012721;28;20046;-61
2021/05/12 01:13:12;;;;;;;7.10;1.70;;;10.90;99.90;;;;;;5012209;28;20073;-58
2021/05/12 01:15:40;;;;;;;8.95;1.70;;;11.00;99.90;;;;;;5012344;28;20038;-58
2021/05/12 01:18:17;;;;;;;10.18;2.25;;;11.00;99.90;;;;;;5012298;28;20071;-59
2021/05/12 01:21:00;;;;;;;11.30;2.20;;;11.00;99.90;;;;;;5012692;28;20054;-61
2021/05/12 01:23:31;;;;;;;10.27;1.90;;;11.00;99.90;;;;;;5012054;28;20084;-59
2021/05/12 01:25:58;;;;;;;15.23;1.80;;;11.00;99.90;;;;;;5011850;28;20128;-58
2021/05/12 01:28:26;;;;;;;8.77;1.85;;;10.90;99.90;;;;;;5010746;28;20104;-59
2021/05/12 01:31:00;;;;;;;17.25;2.40;;;10.90;99.90;;;;;;5012680;28;20026;-59
2021/05/12 01:33:27;;;;;;;10.07;2.08;;;10.90;99.90;;;;;;5011323;28;20048;-60
2021/05/12 01:35:53;;;;;;;12.73;2.05;;;10.90;99.90;;;;;;5011981;28;20050;-60
2021/05/12 01:38:19;;;;;;;8.75;1.85;;;11.00;99.90;;;;;;5011724;28;20108;-58
2021/05/12 01:40:45;;;;;;;10.98;2.33;;;11.00;99.90;;;;;;5012410;28;20069;-57
2021/05/12 01:43:12;;;;;;;7.53;1.90;;;11.00;99.90;;;;;;5010972;28;20364;-59
2021/05/12 01:45:38;;;;;;;9.68;2.35;;;10.90;99.90;;;;;;5012270;28;20030;-60
2021/05/12 01:48:08;;;;;;;12.95;2.38;;;10.90;99.90;;;;;;5011447;28;20056;-60
2021/05/12 01:50:35;;;;;;;8.82;2.13;;;10.80;99.90;;;;;;5012243;28;20072;-60
2021/05/12 01:53:01;;;;;;;11.75;2.20;;;10.70;99.90;;;;;;5010087;28;20038;-59
2021/05/12 01:55:27;;;;;;;7.30;1.88;;;10.70;99.90;;;;;;5011959;28;20053;-58
2021/05/12 01:57:53;;;;;;;11.10;2.10;;;10.70;99.90;;;;;;5010640;28;20441;-59
2021/05/12 02:00:35;;;;;;;9.95;1.98;;;10.70;99.90;;;;;;5012398;28;20026;-59
2021/05/12 02:03:04;;;;;;;19.92;2.70;;;10.60;99.90;;;;;;5011423;28;20504;-59
2021/05/12 02:05:31;;;;;;;13.85;2.08;;;10.60;99.90;;;;;;5012238;28;20030;-58
2021/05/12 02:07:59;;;;;;;8.18;1.95;;;10.50;99.90;;;;;;5011578;28;20088;-58
2021/05/12 02:10:26;;;;;;;11.43;2.35;;;10.40;99.90;;;;;;5011530;28;20403;-59
2021/05/12 02:12:53;;;;;;;10.52;2.03;;;10.30;99.90;;;;;;5010610;28;20310;-62
2021/05/12 02:15:20;;;;;;;10.82;2.30;;;10.30;99.90;;;;;;5011464;28;20038;-59
2021/05/12 02:17:46;;;;;;;12.02;1.95;;;10.20;99.90;;;;;;5011417;28;20036;-60
2021/05/12 02:20:14;;;;;;;9.63;1.95;;;10.20;99.90;;;;;;5011444;28;20037;-59
2021/05/12 02:22:40;;;;;;;9.70;1.95;;;10.20;99.90;;;;;;5010003;28;20498;-58
2021/05/12 02:25:07;;;;;;;10.90;2.13;;;10.20;99.90;;;;;;5011882;28;20037;-58
2021/05/12 02:27:33;;;;;;;13.98;2.30;;;10.20;99.90;;;;;;5007943;28;20074;-59
2021/05/12 02:30:01;;;;;;;11.95;1.88;;;10.20;99.90;;;;;;5011285;28;20472;-58
2021/05/12 02:32:30;;;;;;;8.60;1.80;;;10.20;99.90;;;;;;5010802;28;20052;-59
2021/05/12 02:34:57;;;;;;;14.32;2.13;;;10.10;99.90;;;;;;5009377;28;20033;-59
2021/05/12 02:37:25;;;;;;;11.10;1.83;;;10.10;99.90;;;;;;5010977;28;20044;-59
2021/05/12 02:39:51;;;;;;;10.05;1.85;;;10.10;99.90;;;;;;5011587;28;20041;-59
2021/05/12 02:42:18;;;;;;;15.63;2.42;;;10.10;99.90;;;;;;5010374;28;20096;-61
2021/05/12 02:44:44;;;;;;;10.55;1.63;;;10.10;99.90;;;;;;5010843;28;20038;-60
2021/05/12 02:47:09;;;;;;;11.57;2.45;;;10.00;99.90;;;;;;5010769;28;20488;-59
2021/05/12 02:49:35;;;;;;;10.55;2.03;;;10.00;99.90;;;;;;5011241;28;20033;-59
2021/05/12 02:52:02;;;;;;;10.63;2.10;;;10.00;99.90;;;;;;5010324;28;20399;-59
2021/05/12 02:54:27;;;;;;;12.93;1.75;;;10.00;99.90;;;;;;5011007;28;20052;-60
2021/05/12 02:56:53;;;;;;;9.52;1.77;;;10.00;99.90;;;;;;5007149;28;20418;-59
2021/05/12 02:59:19;;;;;;;9.05;2.10;;;9.90;99.90;;;;;;5010663;28;20450;-59
2021/05/12 03:01:45;;;;;;;12.75;2.20;;;9.90;99.90;;;;;;5010293;28;20400;-59
2021/05/12 03:04:10;;;;;;;18.42;2.35;;;9.90;99.90;;;;;;5010771;28;20073;-58
2021/05/12 03:06:36;;;;;;;12.27;2.42;;;9.80;99.90;;;;;;5011226;28;20838;-59
2021/05/12 03:09:04;;;;;;;13.98;2.17;;;9.80;99.90;;;;;;5009931;28;20030;-58
2021/05/12 03:11:29;;;;;;;10.07;2.00;;;9.80;99.90;;;;;;5011032;28;20034;-58
2021/05/12 03:13:56;;;;;;;15.93;2.55;;;9.80;99.90;;;;;;5007791;28;20104;-60
2021/05/12 03:16:22;;;;;;;12.75;2.03;;;9.80;99.90;;;;;;5010844;28;20134;-59
2021/05/12 03:18:47;;;;;;;10.77;1.67;;;9.70;99.90;;;;;;5009542;28;20447;-58
2021/05/12 03:21:13;;;;;;;9.30;2.22;;;9.70;99.90;;;;;;5010697;28;20054;-59
2021/05/12 03:23:39;;;;;;;11.55;2.42;;;9.80;99.90;;;;;;5008895;28;20125;-59
2021/05/12 03:26:05;;;;;;;13.88;2.60;;;9.80;99.90;;;;;;5010905;28;20109;-60
2021/05/12 03:28:30;;;;;;;12.77;1.92;;;9.80;99.90;;;;;;4992593;28;20046;-60
2021/05/12 03:30:56;;;;;;;12.90;2.17;;;9.80;99.90;;;;;;5010977;28;20030;-58
2021/05/12 03:33:22;;;;;;;9.18;2.10;;;9.70;99.90;;;;;;5009668;28;20034;-60
2021/05/12 03:35:48;;;;;;;10.05;1.92;;;9.70;99.90;;;;;;5010693;28;20113;-59
2021/05/12 03:38:15;;;;;;;10.57;1.90;;;9.60;99.90;;;;;;4992208;28;20048;-59
2021/05/12 03:40:42;;;;;;;22.85;2.83;;;9.50;99.90;;;;;;5010654;28;20054;-60
2021/05/12 03:43:09;;;;;;;13.20;2.10;;;9.40;99.90;;;;;;5009888;28;20081;-60
2021/05/12 03:45:35;;;;;;;13.20;2.17;;;9.40;99.90;;;;;;5010079;28;20184;-59
2021/05/12 03:48:01;;;;;;;13.15;2.20;;;9.40;99.90;;;;;;5010069;28;20105;-58
2021/05/12 03:50:28;;;;;;;13.18;1.80;;;9.50;99.90;;;;;;5010745;28;20060;-58
2021/05/12 03:52:55;;;;;;;10.30;2.05;;;9.60;99.90;;;;;;5008704;28;20513;-59
2021/05/12 03:55:22;;;;;;;8.13;1.85;;;9.60;99.90;;;;;;5010358;28;20369;-59
2021/05/12 03:57:47;;;;;;;16.08;2.85;;;9.60;99.90;;;;;;5009989;28;20034;-60
2021/05/12 04:00:14;;;;;;;11.90;2.33;;;9.60;99.90;;;;;;5009586;28;20049;-61
2021/05/12 04:02:41;;;;;;;14.73;2.60;;;9.60;99.90;;;;;;5009800;28;20073;-57
2021/05/12 04:05:08;;;;;;;11.70;2.20;;;9.60;99.90;;;;;;5010913;28;20553;-59
2021/05/12 04:07:33;;;;;;;12.88;2.45;;;9.60;99.90;;;;;;4996465;28;20530;-59
2021/05/12 04:09:59;;;;;;;12.98;2.40;;;9.60;99.90;;;;;;5010030;28;20042;-60
2021/05/12 04:12:25;;;;;;;16.40;2.30;;;9.60;99.90;;;;;;5009223;28;20531;-61
2021/05/12 04:14:51;;;;;;;11.80;2.35;;;9.50;99.90;;;;;;5010710;28;20440;-59
2021/05/12 04:17:17;;;;;;;14.90;2.42;;;9.40;99.90;;;;;;5012239;28;20042;-60
2021/05/12 04:19:43;;;;;;;17.48;3.17;;;9.40;99.90;;;;;;5013578;28;20403;-61
2021/05/12 04:22:08;;;;;;;16.00;2.47;;;9.50;99.90;;;;;;5013705;28;20046;-58
2021/05/12 04:24:34;;;;;;;13.25;2.53;;;9.60;99.90;;;;;;5012748;28;20033;-61
2021/05/12 04:27:00;;;;;;;11.40;2.30;;;9.60;99.90;;;;;;5013023;28;20563;-59
2021/05/12 04:29:25;;;;;;;11.65;2.30;;;9.70;99.90;;;;;;5012877;28;20037;-58
2021/05/12 04:31:51;;;;;;;16.20;2.90;;;9.70;99.90;;;;;;5013882;28;20166;-59
2021/05/12 04:34:17;;;;;;;12.95;3.00;;;9.80;99.90;;;;;;5012488;28;20124;-59
2021/05/12 04:36:43;;;;;;;13.38;2.40;;;9.80;99.90;;;;;;5013787;28;20037;-60
2021/05/12 04:39:09;;;;;;;20.65;3.10;;;9.80;99.90;;;;;;5012518;28;20446;-59
2021/05/12 04:41:35;;;;;;;20.27;2.70;;;9.90;99.90;;;;;;5013341;28;20121;-60
2021/05/12 04:44:02;;;;;;;19.98;3.00;;;9.90;99.90;;;;;;5012238;28;20045;-60
2021/05/12 04:46:27;;;;;;;12.60;2.35;;;9.90;99.90;;;;;;5012806;28;20065;-61
2021/05/12 04:48:53;;;;;;;7.63;1.70;;;9.90;99.90;;;;;;5012425;28;20443;-58
2021/05/12 04:51:21;;;;;;;9.90;1.30;;;9.90;99.90;;;;;;5013506;28;20443;-58
2021/05/12 04:53:47;;;;;;;7.75;1.52;;;9.90;99.90;;;;;;4994617;28;20395;-58
2021/05/12 04:56:13;;;;;;;8.30;1.60;;;9.90;99.90;;;;;;5007148;28;20046;-58
2021/05/12 04:58:39;;;;;;;6.10;1.52;;;9.90;99.90;;;;;;5012775;28;20116;-58
2021/05/12 05:01:05;;;;;;;5.50;1.10;;;9.90;99.90;;;;;;5013251;28;20118;-59
2021/05/12 05:03:31;;;;;;;7.10;1.50;;;10.00;99.90;;;;;;5011951;28;20034;-58
2021/05/12 05:05:58;;;;;;;10.18;1.52;;;10.00;99.90;;;;;;5013139;28;20034;-59
2021/05/12 05:08:27;;;;;;;4.75;1.40;;;10.10;99.90;;;;;;5011881;28;20030;-57
2021/05/12 05:10:53;;;;;;;5.93;1.50;;;10.10;99.90;;;;;;5005235;28;20495;-59
2021/05/12 05:13:19;;;;;;;6.88;1.45;;;10.00;99.90;;;;;;5012020;28;20033;-59
2021/05/12 05:15:45;;;;;;;4.50;1.30;;;10.10;99.90;;;;;;5012965;28;20041;-59
2021/05/12 05:18:12;;;;;;;7.22;1.08;;;10.10;99.90;;;;;;5012426;28;20038;-58
2021/05/12 05:20:38;;;;;;;4.82;1.20;;;10.10;99.90;;;;;;5012225;28;20045;-58
2021/05/12 05:23:07;;;;;;;4.25;1.40;;;10.10;99.90;;;;;;5011235;28;20046;-60
2021/05/12 05:25:33;;;;;;;6.88;1.35;;;10.10;99.90;;;;;;5012268;28;20071;-59
2021/05/12 05:27:59;;;;;;;4.45;1.20;;;10.20;99.90;;;;;;5010803;28;20152;-59
2021/05/12 05:30:25;;;;;;;8.10;1.60;;;10.20;99.90;;;;;;5012299;28;20538;-59
2021/05/12 05:32:51;;;;;;;5.88;1.45;;;10.20;99.90;;;;;;5011778;28;20117;-59
2021/05/12 05:35:17;;;;;;;4.95;1.48;;;10.30;99.90;;;;;;5012658;28;20045;-59
2021/05/12 05:37:43;;;;;;;4.57;1.23;;;10.30;99.90;;;;;;5011826;28;20509;-59
2021/05/12 05:40:09;;;;;;;7.50;1.58;;;10.30;99.90;;;;;;5011715;28;20100;-58
2021/05/12 05:42:35;;;;;;;8.93;1.77;;;10.40;99.90;;;;;;5012253;28;20046;-59
2021/05/12 05:45:00;;;;;;;5.50;1.40;;;10.40;99.90;;;;;;5010952;28;20041;-61
2021/05/12 05:47:26;;;;;;;8.13;1.55;;;10.40;99.90;;;;;;5012158;28;20034;-59
2021/05/12 05:49:52;;;;;;;7.03;1.70;;;10.50;99.90;;;;;;5011548;28;20049;-59
2021/05/12 05:52:18;;;;;;;8.30;2.10;;;10.60;99.90;;;;;;5011645;28;20518;-60
2021/05/12 05:54:44;;;;;;;7.25;1.95;;;10.60;99.90;;;;;;5011255;28;20049;-58
2021/05/12 05:57:14;;;;;;;7.95;2.47;;;10.70;99.90;;;;;;5011830;28;20034;-60
2021/05/12 05:59:41;;;;;;;10.82;2.35;;;10.70;99.90;;;;;;5011326;28;20087;-60
2021/05/12 06:02:07;;;;;;;12.30;2.35;;;10.70;99.90;;;;;;5011755;28;20041;-59
2021/05/12 06:04:33;;;;;;;19.95;3.20;;;10.70;99.90;;;;;;5011410;28;20045;-60
2021/05/12 06:06:59;;;;;;;16.65;3.63;;;10.70;99.90;;;;;;5011330;28;20049;-58
2021/05/12 06:09:25;;;;;;;17.20;3.15;;;10.80;99.90;;;;;;5010820;28;20038;-60
2021/05/12 06:11:51;;;;;;;23.73;3.83;;;10.80;99.90;;;;;;5012154;28;20116;-58
2021/05/12 06:14:19;;;;;;;21.90;4.47;;;10.80;99.90;;;;;;5011399;28;20036;-60
2021/05/12 06:16:45;;;;;;;23.38;4.80;;;11.00;99.90;;;;;;5011459;28;20049;-59
2021/05/12 06:19:11;;;;;;;23.63;4.45;;;11.00;99.90;;;;;;5010291;28;20050;-60
2021/05/12 06:21:36;;;;;;;26.05;5.45;;;11.10;99.90;;;;;;5011628;28;20503;-58
2021/05/12 06:24:03;;;;;;;25.20;4.63;;;11.10;99.90;;;;;;5009360;28;20041;-59
2021/05/12 06:26:28;;;;;;;26.92;4.18;;;11.20;99.90;;;;;;5011793;28;20120;-61
2021/05/12 06:28:56;;;;;;;22.65;4.72;;;11.30;99.90;;;;;;5011358;28;20527;-58
2021/05/12 06:31:21;;;;;;;25.35;4.15;;;11.40;99.90;;;;;;5011607;28;20044;-61
2021/05/12 06:33:47;;;;;;;24.73;4.35;;;11.50;99.90;;;;;;5009900;28;20113;-61
2021/05/12 06:36:16;;;;;;;21.48;4.20;;;11.70;99.90;;;;;;5011596;28;20041;-63
2021/05/12 06:38:42;;;;;;;20.17;3.88;;;12.00;99.90;;;;;;5009517;28;20030;-60
2021/05/12 06:41:08;;;;;;;24.17;4.47;;;12.10;99.90;;;;;;5001643;28;20037;-59
2021/05/12 06:43:34;;;;;;;31.45;5.65;;;12.10;99.90;;;;;;5010489;28;20182;-59
2021/05/12 06:45:59;;;;;;;23.83;3.53;;;12.10;99.90;;;;;;5010859;28;20038;-60
2021/05/12 06:48:25;;;;;;;17.42;3.78;;;12.30;99.90;;;;;;5010119;28;20030;-60
2021/05/12 06:50:51;;;;;;;22.55;3.28;;;12.70;99.90;;;;;;5011271;28;20033;-58
2021/05/12 06:53:29;;;;;;;17.92;3.90;;;13.00;99.90;;;;;;5009629;28;20038;-60
2021/05/12 06:55:56;;;;;;;18.13;3.67;;;13.40;99.90;;;;;;5002078;28;20403;-61
2021/05/12 06:58:22;;;;;;;25.85;4.80;;;13.40;99.90;;;;;;5009450;28;20800;-59
2021/05/12 07:00:50;;;;;;;19.23;3.63;;;13.20;99.90;;;;;;5010688;28;20057;-60
2021/05/12 07:03:16;;;;;;;25.40;3.78;;;13.10;99.90;;;;;;5010195;28;20041;-60
2021/05/12 07:05:42;;;;;;;23.55;4.07;;;13.10;99.90;;;;;;5008756;28;20068;-61
2021/05/12 07:08:08;;;;;;;23.67;4.35;;;13.00;99.90;;;;;;5010469;28;20105;-62
2021/05/12 07:10:34;;;;;;;22.52;3.50;;;13.20;99.90;;;;;;5009768;28;20072;-61
2021/05/12 07:13:00;;;;;;;20.00;3.88;;;13.20;99.90;;;;;;5010492;28;20041;-59
2021/05/12 07:15:25;;;;;;;37.47;4.18;;;13.20;99.90;;;;;;5009773;28;20104;-59
2021/05/12 07:17:51;;;;;;;23.30;3.60;;;13.10;99.90;;;;;;5011000;28;20120;-59
2021/05/12 07:20:17;;;;;;;31.48;4.63;;;13.00;99.90;;;;;;5009424;28;20041;-61
2021/05/12 07:22:42;;;;;;;15.85;3.33;;;12.90;99.90;;;;;;5009341;28;20042;-60
2021/05/12 07:25:09;;;;;;;40.85;4.28;;;12.80;99.90;;;;;;5008733;28;20033;-60
2021/05/12 07:27:35;;;;;;;16.48;2.95;;;12.90;99.90;;;;;;5010285;28;20049;-61
2021/05/12 07:30:01;;;;;;;22.38;3.75;;;12.90;99.90;;;;;;5008537;28;20030;-61
2021/05/12 07:32:27;;;;;;;22.58;4.20;;;12.90;99.90;;;;;;5007411;28;20038;-60
2021/05/12 07:34:53;;;;;;;16.67;2.90;;;13.10;99.90;;;;;;5008950;28;20076;-60
2021/05/12 07:37:19;;;;;;;28.67;3.42;;;13.20;99.90;;;;;;5009998;28;20042;-59
2021/05/12 07:39:45;;;;;;;34.58;4.60;;;13.20;99.90;;;;;;5009611;28;20478;-60
2021/05/12 07:42:13;;;;;;;38.08;4.38;;;13.40;99.90;;;;;;5010621;28;20046;-60
2021/05/12 07:44:39;;;;;;;38.45;5.30;;;13.50;99.90;;;;;;5009546;28;20395;-61
2021/05/12 07:47:05;;;;;;;36.13;4.57;;;13.60;99.90;;;;;;5020202;28;20042;-60
2021/05/12 07:49:31;;;;;;;23.83;3.28;;;13.50;99.90;;;;;;5009622;28;20053;-60
2021/05/12 07:51:57;;;;;;;14.27;2.60;;;13.80;99.90;;;;;;5012730;28;20030;-60
2021/05/12 07:54:22;;;;;;;43.95;5.35;;;13.80;99.90;;;;;;5012905;28;20048;-60
2021/05/12 07:56:48;;;;;;;40.92;9.80;;;13.60;99.90;;;;;;5014511;28;20454;-60
2021/05/12 07:59:16;;;;;;;22.60;3.63;;;13.70;99.90;;;;;;5012949;28;20030;-61
2021/05/12 08:01:44;;;;;;;23.42;3.30;;;13.70;99.90;;;;;;5019142;28;20120;-60
2021/05/12 08:04:10;;;;;;;12.05;2.95;;;13.60;99.90;;;;;;5015854;28;20045;-60
2021/05/12 08:06:36;;;;;;;24.10;4.00;;;13.50;99.90;;;;;;5013802;28;20105;-62
2021/05/12 08:09:03;;;;;;;19.13;3.05;;;13.80;99.90;;;;;;5013557;28;20050;-60
2021/05/12 08:11:29;;;;;;;22.92;3.67;;;14.30;99.90;;;;;;5011772;28;20100;-60
2021/05/12 08:13:55;;;;;;;38.72;3.83;;;14.80;99.90;;;;;;5009224;28;20037;-59
2021/05/12 08:16:20;;;;;;;22.60;3.17;;;15.40;99.90;;;;;;5008849;28;20076;-60
2021/05/12 08:18:46;;;;;;;14.45;2.47;;;15.70;99.90;;;;;;5012868;28;20543;-60
2021/05/12 08:21:12;;;;;;;15.95;2.78;;;16.20;99.90;;;;;;5015482;28;20812;-63
2021/05/12 08:23:38;;;;;;;13.35;2.70;;;16.20;99.90;;;;;;5012135;28;20038;-61
2021/05/12 08:26:03;;;;;;;22.75;3.50;;;16.40;99.90;;;;;;5011452;28;20104;-59
2021/05/12 08:28:30;;;;;;;15.55;3.60;;;16.10;99.90;;;;;;4994342;28;20072;-58
2021/05/12 08:30:57;;;;;;;14.75;2.67;;;16.30;99.90;;;;;;5007876;28;20042;-58
2021/05/12 08:33:24;;;;;;;17.30;2.90;;;16.60;99.90;;;;;;5010629;28;20030;-58
2021/05/12 08:35:51;;;;;;;19.05;3.58;;;16.80;99.90;;;;;;5012202;28;20042;-60
2021/05/12 08:38:20;;;;;;;24.13;3.63;;;17.10;99.90;;;;;;5010146;28;20037;-58
2021/05/12 08:40:46;;;;;;;23.40;3.00;;;17.10;99.90;;;;;;5006993;28;20104;-60
2021/05/12 08:43:13;;;;;;;21.67;3.58;;;16.50;99.90;;;;;;5008285;28;20034;-58
2021/05/12 08:45:43;;;;;;;18.15;3.42;;;16.20;99.90;;;;;;5008320;28;20107;-59
2021/05/12 08:48:13;;;;;;;19.85;3.28;;;16.60;99.90;;;;;;5009500;28;20492;-59
2021/05/12 08:50:39;;;;;;;10.77;2.75;;;16.50;99.90;;;;;;5010408;28;20506;-61
2021/05/12 08:53:05;;;;;;;15.93;2.92;;;16.50;99.90;;;;;;5011919;28;20086;-59
2021/05/12 08:55:32;;;;;;;22.52;3.50;;;16.60;99.90;;;;;;5011104;28;20074;-58
2021/05/12 08:57:58;;;;;;;14.75;2.72;;;16.80;99.90;;;;;;4994109;28;20038;-59
2021/05/12 09:00:24;;;;;;;14.55;2.42;;;16.50;99.90;;;;;;5012287;28;20487;-58
2021/05/12 09:02:51;;;;;;;13.13;2.75;;;16.10;99.90;;;;;;5014248;28;20137;-59
2021/05/12 09:05:18;;;;;;;10.98;2.53;;;15.90;99.90;;;;;;5011463;28;20096;-60
2021/05/12 09:07:44;;;;;;;16.10;3.38;;;15.70;99.90;;;;;;5012081;28;20030;-60
2021/05/12 09:10:11;;;;;;;17.05;2.80;;;15.90;99.90;;;;;;5011207;28;20072;-60
2021/05/12 09:12:55;;;;;;;21.90;3.63;;;16.40;99.90;;;;;;5011075;28;20050;-60
2021/05/12 09:15:23;;;;;;;29.48;3.90;;;16.70;99.90;;;;;;5011249;28;20054;-59
2021/05/12 09:17:51;;;;;;;11.48;2.60;;;17.20;99.90;;;;;;5010523;28;20065;-63
2021/05/12 09:20:20;;;;;;;12.35;3.30;;;17.60;99.90;;;;;;5010893;28;20038;-61
2021/05/12 09:22:46;;;;;;;22.55;3.92;;;17.60;99.90;;;;;;4994511;28;20045;-61
2021/05/12 09:25:19;;;;;;;13.63;2.60;;;17.30;99.90;;;;;;5010756;28;20045;-60
2021/05/12 09:27:47;;;;;;;22.20;3.03;;;16.80;99.90;;;;;;4992950;28;20050;-60
2021/05/12 09:30:23;;;;;;;11.35;2.67;;;16.70;99.90;;;;;;5011637;28;20045;-62
2021/05/12 09:32:48;;;;;;;18.95;3.53;;;17.10;99.90;;;;;;5015220;28;20037;-61
2021/05/12 09:35:16;;;;;;;11.48;2.47;;;17.60;99.90;;;;;;5010897;28;20046;-60
2021/05/12 09:37:44;;;;;;;16.73;2.35;;;18.00;99.90;;;;;;5011455;28;20038;-62
2021/05/12 09:40:12;;;;;;;13.15;2.50;;;18.00;99.90;;;;;;5008447;28;20038;-58
2021/05/12 09:42:39;;;;;;;13.02;2.72;;;17.70;99.90;;;;;;5011829;28;20038;-58
2021/05/12 09:45:20;;;;;;;16.80;2.70;;;17.60;99.90;;;;;;4993495;28;20514;-59
2021/05/12 09:47:48;;;;;;;17.20;2.83;;;17.30;99.90;;;;;;5011918;28;20034;-59
2021/05/12 09:50:16;;;;;;;21.80;3.63;;;17.10;99.90;;;;;;5015090;28;20078;-59
2021/05/12 09:52:42;;;;;;;14.18;2.78;;;16.80;99.90;;;;;;5013627;28;20048;-59
2021/05/12 09:55:15;;;;;;;13.50;3.38;;;17.10;99.90;;;;;;5013379;28;20050;-60
2021/05/12 09:58:03;;;;;;;8.65;2.20;;;17.40;99.90;;;;;;5010450;28;20045;-59
2021/05/12 10:00:33;;;;;;;9.23;1.98;;;17.60;99.90;;;;;;5008436;28;22261;-61
2021/05/12 10:03:01;;;;;;;10.93;2.55;;;17.70;99.90;;;;;;5011310;28;20069;-60
2021/05/12 10:05:27;;;;;;;9.52;2.40;;;17.50;99.90;;;;;;5010631;28;20030;-60
2021/05/12 10:07:59;;;;;;;10.60;2.20;;;17.40;99.90;;;;;;5011317;28;20046;-59
2021/05/12 10:10:35;;;;;;;10.00;2.50;;;17.10;99.90;;;;;;5015088;28;20539;-60
2021/05/12 10:13:01;;;;;;;11.07;2.53;;;16.90;99.90;;;;;;5010567;28;20064;-59
2021/05/12 10:15:27;;;;;;;15.52;3.55;;;17.00;99.90;;;;;;5009422;28;20499;-60
2021/05/12 10:17:53;;;;;;;17.10;2.95;;;16.90;99.90;;;;;;5011784;28;20034;-60
2021/05/12 10:20:20;;;;;;;11.93;2.30;;;16.80;99.90;;;;;;5009808;28;20052;-60
2021/05/12 10:22:46;;;;;;;22.60;3.38;;;16.60;99.90;;;;;;5012551;28;20113;-60
2021/05/12 10:25:12;;;;;;;13.20;2.80;;;17.00;99.90;;;;;;5007340;28;20523;-59
2021/05/12 10:27:38;;;;;;;21.02;3.30;;;17.00;99.90;;;;;;5009742;28;20045;-60
2021/05/12 10:30:05;;;;;;;15.05;3.05;;;16.80;99.90;;;;;;5007630;28;20041;-59
2021/05/12 10:32:36;;;;;;;27.38;4.13;;;16.60;99.90;;;;;;5011014;28;20034;-59
2021/05/12 10:35:14;;;;;;;14.52;2.58;;;16.60;99.90;;;;;;5007974;28;20112;-60
2021/05/12 10:37:41;;;;;;;27.52;4.60;;;16.50;99.90;;;;;;5011253;28;20120;-60
2021/05/12 10:40:27;;;;;;;14.68;2.95;;;16.30;99.90;;;;;;4992725;28;20046;-60
2021/05/12 10:43:39;;;;;;;23.15;3.17;;;16.30;99.90;;;;;;5011341;28;20103;-61
2021/05/12 10:48:37;;;;;;;20.92;3.47;;;17.00;99.90;;;;;;5014689;28;20436;-59
2021/05/12 10:51:29;;;;;;;13.25;2.97;;;17.00;99.90;;;;;;5003079;28;20105;-60
2021/05/12 10:54:06;;;;;;;13.55;3.28;;;17.20;99.90;;;;;;5007195;28;20045;-59
2021/05/12 10:56:43;;;;;;;12.75;2.90;;;17.40;99.90;;;;;;5009217;28;20049;-60
2021/05/12 10:59:15;;;;;;;17.50;3.20;;;17.50;99.90;;;;;;5011665;28;20064;-59
2021/05/12 11:01:41;;;;;;;30.42;4.85;;;17.50;99.90;;;;;;5009609;28;20073;-59
2021/05/12 11:04:10;;;;;;;16.67;3.65;;;17.30;99.90;;;;;;5009584;28;20439;-59
2021/05/12 11:06:38;;;;;;;22.48;3.70;;;17.10;99.90;;;;;;5010053;28;20037;-60
2021/05/12 11:09:07;;;;;;;13.75;3.00;;;17.00;99.90;;;;;;5011063;28;20049;-59
2021/05/12 11:11:39;;;;;;;12.23;2.92;;;17.00;99.90;;;;;;5009658;28;20090;-60
2021/05/12 11:14:31;;;;;;;15.05;3.20;;;17.10;99.90;;;;;;5010809;28;20575;-59
2021/05/12 11:17:07;;;;;;;16.10;2.80;;;17.20;99.90;;;;;;5009461;28;20113;-59
2021/05/12 11:25:37;;;;;;;14.90;3.10;;;17.70;99.90;;;;;;5008248;28;20042;-60
2021/05/12 11:33:21;;;;;;;11.27;3.28;;;18.40;99.90;;;;;;5009458;28;20592;-60
2021/05/12 11:35:49;;;;;;;20.17;3.55;;;18.50;99.90;;;;;;5012707;28;20046;-60
2021/05/12 11:38:16;;;;;;;28.52;4.05;;;18.70;99.90;;;;;;5012578;28;20042;-60
2021/05/12 11:41:00;;;;;;;16.58;3.53;;;18.90;99.90;;;;;;5011043;28;20033;-60
2021/05/12 11:43:41;;;;;;;13.60;3.15;;;18.90;99.90;;;;;;5016808;28;20076;-58
2021/05/12 11:46:15;;;;;;;18.38;3.50;;;19.00;99.90;;;;;;5012785;28;20465;-60
2021/05/12 11:48:48;;;;;;;19.33;3.55;;;18.90;99.90;;;;;;5012812;28;20116;-59
2021/05/12 11:51:34;;;;;;;18.90;4.07;;;18.70;99.90;;;;;;5011986;28;20040;-61
2021/05/12 11:54:00;;;;;;;19.13;3.92;;;18.60;99.90;;;;;;5003226;28;20041;-60
2021/05/12 11:56:26;;;;;;;17.63;3.30;;;18.40;99.90;;;;;;5011495;28;20565;-61
2021/05/12 11:58:59;;;;;;;15.38;3.45;;;18.30;99.90;;;;;;5011692;28;20073;-60
2021/05/12 12:01:27;;;;;;;19.50;3.80;;;18.40;99.90;;;;;;5004900;28;20049;-59
2021/05/12 12:04:04;;;;;;;13.93;3.38;;;18.60;99.90;;;;;;5012644;28;20064;-60
2021/05/12 12:06:30;;;;;;;37.42;8.45;;;18.80;99.90;;;;;;5011798;28;20038;-61
2021/05/12 12:08:56;;;;;;;12.93;3.30;;;18.90;99.90;;;;;;5011426;28;20103;-62
2021/05/12 12:11:22;;;;;;;22.27;3.22;;;19.10;99.90;;;;;;5011885;28;20072;-61
2021/05/12 12:13:58;;;;;;;19.55;4.43;;;19.10;99.90;;;;;;5012597;28;20032;-60
2021/05/12 12:16:24;;;;;;;16.25;3.00;;;19.20;99.90;;;;;;5011995;28;20048;-59
2021/05/12 12:18:51;;;;;;;15.45;3.97;;;18.80;99.90;;;;;;5011742;28;20034;-60
2021/05/12 12:21:27;;;;;;;17.13;3.60;;;18.70;99.90;;;;;;4989170;28;644170;-60
2021/05/12 12:23:53;;;;;;;12.45;3.13;;;18.70;99.90;;;;;;4995764;28;20146;-59
2021/05/12 12:26:19;;;;;;;13.35;3.80;;;18.60;99.90;;;;;;5011954;28;20152;-60
2021/05/12 12:28:46;;;;;;;17.58;3.30;;;18.50;99.90;;;;;;5013004;28;20105;-60
2021/05/12 12:31:18;;;;;;;16.83;3.53;;;18.50;99.90;;;;;;5011589;28;20515;-60
2021/05/12 12:33:44;;;;;;;17.20;3.92;;;18.70;99.90;;;;;;5013989;28;20125;-59
2021/05/12 12:36:12;;;;;;;17.85;3.50;;;18.70;99.90;;;;;;5012229;28;20458;-59
2021/05/12 12:39:04;;;;;;;18.63;3.67;;;18.90;99.90;;;;;;5013709;28;20038;-60
2021/05/12 12:41:30;;;;;;;19.40;3.78;;;19.00;99.90;;;;;;5006829;28;20522;-59
2021/05/12 12:43:55;;;;;;;15.77;3.15;;;19.10;99.90;;;;;;5013028;28;20049;-59
2021/05/12 12:46:27;;;;;;;17.10;3.50;;;19.10;99.90;;;;;;5011592;28;20488;-60
2021/05/12 12:48:53;;;;;;;19.63;4.35;;;18.90;99.90;;;;;;5013116;28;20041;-59
2021/05/12 12:51:39;;;;;;;20.23;3.80;;;18.80;99.90;;;;;;5012719;28;20030;-59
2021/05/12 12:54:06;;;;;;;11.10;3.42;;;18.90;99.90;;;;;;5012066;28;20439;-58
2021/05/12 12:56:32;;;;;;;11.45;2.83;;;18.70;99.90;;;;;;4993502;28;20069;-59
2021/05/12 12:59:08;;;;;;;11.65;2.67;;;18.70;99.90;;;;;;5012270;28;20113;-60